Arco, Minnesota
Current Conditions -  °F | °C
As of 9:55 PM on Wednesday 22 Oct 2014 (Local Time) from KMML Reporting Station
Overcast Overcast  
Wind Chill: 59°   Ceiling: 1100
Heat Index: 59°   Visibility: 10mi
Dew Point: 54°   Wind: 9mph
Humidity: 82%   Direction: 250°WSW
Pressure: 29.98"   Gusts: NA
Location:  44.38°N, 96.18°W
Report Text: KMML 230255Z AUTO 25008KT 10SM BKN011 OVC018 15/12 A2998 RMK AO1 60004 52010
Loading
Personal Weather Stations






























Interactive Weather Map
Tropical Storm Tracking
New forecast layout! Learn more

10-Day Weather Forecast

Advertisements
Track Severe Weather on mobile